Clarinda, Schenck Field (KICL)

NameSchenck Field
CityClarinda
CountryUnited States
ICAOKICL
IATAICL
Altitude304 m
CoordinatesGoogle Map
Live Air TrafficLiveATC.net
METARKICL 171955Z AUTO 03009G15KT 10SM CLR 17/03 A3045 RMK AO2
2018-10-17 19:55:00 Wind: North-Northeast (30°) 4.63 m/s - Visibility: 16093.4 m - Temperature: 17 °C - Dew point: 3 °C - Humidity: 39.4% - Pressure: 1031.16 hPa

Sorry, no flights used the airport in this database.